Time;durP1;ratioP1;P1;durP2;ratioP2;P2;SDS_P1;SDS_P2;PMS_P1;PMS_P2;Temp;Humidity;BMP_temperature;BMP_pressure;BME280_temperature;BME280_humidity;BME280_pressure;Samples;Min_cycle;Max_cycle;Signal;HPM_P1;HPM_P2
2022/09/18 00:02:14;;;;;;;;;;;;;;;18.63;85.36;94052.34;5034175;28;1095;-59
2022/09/18 00:04:40;;;;;;;;;;;;;;;18.64;85.15;94049.41;5035208;28;1087;-59
2022/09/18 00:07:06;;;;;;;;;;;;;;;18.56;84.95;94044.38;5038179;28;2548;-59
2022/09/18 00:09:33;;;;;;;;;;;;;;;18.56;85.04;94054.38;5055270;28;950;-59
2022/09/18 00:12:00;;;;;;;;;;;;;;;18.56;84.78;94048.97;5055222;28;1064;-59
2022/09/18 00:14:26;;;;;;;;;;;;;;;18.41;85.24;94052.97;5055277;28;1547;-59
2022/09/18 00:16:54;;;;;;;;;;;;;;;18.41;84.99;94047.56;5053682;28;1098;-59
2022/09/18 00:19:21;;;;;;;;;;;;;;;18.37;84.70;94049.09;5054885;28;1028;-59
2022/09/18 00:21:49;;;;;;;;;;;;;;;18.46;84.13;94039.56;5054739;28;992;-59
2022/09/18 00:24:18;;;;;;;;;;;;;;;18.43;84.08;94050.03;5054914;28;1084;-59
2022/09/18 00:26:45;;;;;;;;;;;;;;;18.38;84.70;94050.72;5054837;28;1910;-59
2022/09/18 00:29:12;;;;;;;;;;;;;;;18.31;84.71;94052.75;5054816;28;1182;-59
2022/09/18 00:31:39;;;;;;;;;;;;;;;18.25;84.63;94053.66;5054585;28;1033;-59
2022/09/18 00:34:07;;;;;;;;;;;;;;;18.24;84.68;94057.44;5054672;28;1122;-59
2022/09/18 00:36:34;;;;;;;;;;;;;;;18.22;84.46;94054.16;5053258;28;1016;-59
2022/09/18 00:39:01;;;;;;;;;;;;;;;18.21;84.72;94057.91;5054901;28;973;-59
2022/09/18 00:41:30;;;;;;;;;;;;;;;18.08;83.80;94067.91;5054679;28;1037;-59
2022/09/18 00:44:14;;;;;;;;;;;;;;;18.16;84.46;94068.63;5054397;28;1111;-59
2022/09/18 00:46:42;;;;;;;;;;;;;;;18.11;84.27;94074.72;5054235;28;1914;-59
2022/09/18 00:49:20;;;;;;;;;;;;;;;17.92;84.02;94077.50;5054345;28;1160;-59
2022/09/18 00:51:48;;;;;;;;;;;;;;;17.88;84.86;94080.94;5053229;28;1192;-59
2022/09/18 00:54:33;;;;;;;;;;;;;;;17.85;84.55;94073.28;5054292;28;1122;-59
2022/09/18 00:57:01;;;;;;;;;;;;;;;17.85;84.80;94089.50;5054077;28;1174;-59
2022/09/18 00:59:29;;;;;;;;;;;;;;;17.86;84.12;94089.25;5037745;28;1260;-59
2022/09/18 01:01:56;;;;;;;;;;;;;;;17.91;83.91;94088.59;5033952;28;1036;-58
2022/09/18 01:04:23;;;;;;;;;;;;;;;17.92;83.97;94082.91;5034553;28;1188;-59
2022/09/18 01:06:57;;;;;;;;;;;;;;;17.83;83.68;94094.28;5034861;28;2430;-59
2022/09/18 01:09:33;;;;;;;;;;;;;;;17.86;83.57;94102.78;5054214;28;1091;-59
2022/09/18 01:11:59;;;;;;;;;;;;;;;17.82;83.87;94098.88;5053396;28;1039;-59
2022/09/18 01:14:37;;;;;;;;;;;;;;;17.83;83.70;94099.69;5053632;28;1044;-59
2022/09/18 01:17:30;;;;;;;;;;;;;;;17.94;82.94;94112.44;5053073;28;1119;-59
2022/09/18 01:19:59;;;;;;;;;;;;;;;18.00;82.83;94107.97;5051645;28;1803;-59
2022/09/18 01:22:43;;;;;;;;;;;;;;;17.93;82.70;94106.22;5053542;28;1195;-58
2022/09/18 01:25:36;;;;;;;;;;;;;;;17.86;82.89;94115.47;5053385;28;970;-59
2022/09/18 01:28:20;;;;;;;;;;;;;;;17.64;82.93;94116.00;5044551;28;1232;-59
2022/09/18 01:30:47;;;;;;;;;;;;;;;17.53;83.35;94117.59;5053683;28;1025;-59
2022/09/18 01:33:27;;;;;;;;;;;;;;;17.52;83.91;94118.63;5053392;28;1208;-59
2022/09/18 01:35:57;;;;;;;;;;;;;;;17.61;84.35;94137.25;5053272;28;1113;-59
2022/09/18 01:38:26;;;;;;;;;;;;;;;17.58;83.82;94140.41;5053677;28;1184;-59
2022/09/18 01:40:52;;;;;;;;;;;;;;;17.49;83.94;94132.63;5053494;28;1098;-59
2022/09/18 01:43:19;;;;;;;;;;;;;;;17.47;83.98;94129.31;5053476;28;917;-59
2022/09/18 01:45:48;;;;;;;;;;;;;;;17.49;84.93;94147.97;5053364;28;1914;-59
2022/09/18 01:48:20;;;;;;;;;;;;;;;17.52;84.70;94153.75;5053136;28;973;-58
2022/09/18 01:50:56;;;;;;;;;;;;;;;17.62;84.62;94147.81;5053386;28;1259;-58
2022/09/18 01:53:48;;;;;;;;;;;;;;;17.71;83.99;94146.44;5053348;28;976;-59
2022/09/18 01:56:25;;;;;;;;;;;;;;;17.73;83.72;94159.72;5052123;28;1189;-59
2022/09/18 01:58:54;;;;;;;;;;;;;;;17.78;83.84;94159.06;5041752;28;1244;-59
2022/09/18 02:01:21;;;;;;;;;;;;;;;17.83;83.52;94165.41;5033291;28;1178;-59
2022/09/18 02:03:50;;;;;;;;;;;;;;;17.79;83.00;94183.13;5031584;28;1064;-59
2022/09/18 02:06:40;;;;;;;;;;;;;;;17.77;83.12;94193.34;5033386;28;1907;-59
2022/09/18 02:09:10;;;;;;;;;;;;;;;17.78;85.44;94194.19;5033518;28;2406;-59
2022/09/18 02:11:41;;;;;;;;;;;;;;;17.91;84.35;94208.38;5052139;28;1023;-59
2022/09/18 02:14:14;;;;;;;;;;;;;;;18.00;83.90;94224.28;5052407;28;1080;-59
2022/09/18 02:16:44;;;;;;;;;;;;;;;18.00;83.42;94224.28;5052988;28;958;-59
2022/09/18 02:19:24;;;;;;;;;;;;;;;18.00;83.16;94235.09;5051799;28;1148;-59
2022/09/18 02:21:52;;;;;;;;;;;;;;;17.95;82.65;94249.31;5053208;28;1032;-59
2022/09/18 02:24:21;;;;;;;;;;;;;;;17.95;81.71;94270.94;5053075;28;1111;-59
2022/09/18 02:26:50;;;;;;;;;;;;;;;17.94;80.59;94289.03;5051539;28;1910;-59
2022/09/18 02:29:18;;;;;;;;;;;;;;;17.96;80.05;94288.81;5053089;28;1482;-59
2022/09/18 02:31:48;;;;;;;;;;;;;;;17.91;77.90;94288.69;5051630;28;1554;-59
2022/09/18 02:34:17;;;;;;;;;;;;;;;17.87;76.79;94311.78;5051842;28;1543;-59
2022/09/18 02:36:47;;;;;;;;;;;;;;;17.76;76.84;94313.38;5052781;28;1357;-59
2022/09/18 02:39:26;;;;;;;;;;;;;;;17.64;75.93;94313.31;5051701;28;1546;-59
2022/09/18 02:42:12;;;;;;;;;;;;;;;17.59;76.63;94336.66;5035263;28;1599;-59
2022/09/18 02:44:50;;;;;;;;;;;;;;;17.52;75.00;94336.69;5052602;28;1056;-59
2022/09/18 02:47:17;;;;;;;;;;;;;;;17.47;75.72;94353.59;5035306;28;1981;-58
2022/09/18 02:49:49;;;;;;;;;;;;;;;17.43;73.96;94344.25;5052352;28;1196;-59
2022/09/18 02:52:33;;;;;;;;;;;;;;;17.41;74.71;94369.88;5053091;28;1523;-59
2022/09/18 02:55:10;;;;;;;;;;;;;;;17.28;74.08;94374.34;5052263;28;974;-59
2022/09/18 02:57:38;;;;;;;;;;;;;;;17.25;74.70;94372.09;5051502;28;1280;-58
2022/09/18 03:00:06;;;;;;;;;;;;;;;17.11;75.22;94365.97;5032753;28;1003;-58
2022/09/18 03:02:32;;;;;;;;;;;;;;;17.03;73.36;94381.63;5032574;28;1035;-58
2022/09/18 03:04:58;;;;;;;;;;;;;;;16.88;73.12;94381.94;5032064;28;917;-59
2022/09/18 03:07:24;;;;;;;;;;;;;;;16.66;72.71;94392.25;5032430;28;1980;-58
2022/09/18 03:09:50;;;;;;;;;;;;;;;16.57;72.76;94395.19;5032590;28;1047;-58
2022/09/18 03:12:16;;;;;;;;;;;;;;;16.54;72.21;94403.72;5032385;28;1095;-58
2022/09/18 03:14:42;;;;;;;;;;;;;;;16.41;72.30;94403.78;5032128;28;2835;-59
2022/09/18 03:17:09;;;;;;;;;;;;;;;16.27;72.14;94404.88;5035512;28;1384;-59
2022/09/18 03:19:35;;;;;;;;;;;;;;;16.31;71.76;94412.31;5035828;28;1028;-59
2022/09/18 03:22:04;;;;;;;;;;;;;;;16.23;70.54;94420.66;5036030;28;1052;-59
2022/09/18 03:24:31;;;;;;;;;;;;;;;16.13;70.69;94414.91;5035073;28;1863;-58
2022/09/18 03:26:58;;;;;;;;;;;;;;;16.05;69.83;94426.75;5036065;28;1989;-60
2022/09/18 03:29:28;;;;;;;;;;;;;;;15.98;70.72;94420.56;5018599;28;1496;-59
2022/09/18 03:31:57;;;;;;;;;;;;;;;15.96;70.27;94431.56;5034749;28;1622;-59
2022/09/18 03:34:26;;;;;;;;;;;;;;;15.92;68.87;94446.50;5034585;28;1558;-59
2022/09/18 03:36:55;;;;;;;;;;;;;;;15.91;69.26;94449.41;5034593;28;1571;-59
2022/09/18 03:39:21;;;;;;;;;;;;;;;15.86;68.86;94451.88;5035254;28;1048;-59
2022/09/18 03:41:48;;;;;;;;;;;;;;;15.83;70.10;94460.41;5035971;28;980;-59
2022/09/18 03:44:15;;;;;;;;;;;;;;;15.87;69.17;94459.78;5035722;28;1259;-59
2022/09/18 03:46:42;;;;;;;;;;;;;;;15.87;67.50;94457.06;5035593;28;1903;-59
2022/09/18 03:49:10;;;;;;;;;;;;;;;15.83;68.42;94465.81;5035377;28;1705;-58
2022/09/18 03:51:37;;;;;;;;;;;;;;;15.80;69.11;94472.44;5035539;28;1232;-58
2022/09/18 03:54:03;;;;;;;;;;;;;;;15.76;68.05;94479.28;5035091;28;1100;-58
2022/09/18 03:56:29;;;;;;;;;;;;;;;15.76;67.35;94477.44;5035251;28;956;-58
2022/09/18 03:58:56;;;;;;;;;;;;;;;15.72;66.77;94483.41;5047505;28;1873;-59
2022/09/18 04:01:22;;;;;;;;;;;;;;;15.82;66.04;94500.00;5055290;28;1102;-58
2022/09/18 04:03:48;;;;;;;;;;;;;;;15.79;66.36;94500.44;5053677;28;1103;-58
2022/09/18 04:06:15;;;;;;;;;;;;;;;15.73;66.04;94507.50;5054905;28;1902;-58
2022/09/18 04:08:42;;;;;;;;;;;;;;;15.62;66.05;94513.47;5054757;28;1061;-58
2022/09/18 04:11:08;;;;;;;;;;;;;;;15.61;66.83;94519.88;5048782;28;2531;-58
2022/09/18 04:13:34;;;;;;;;;;;;;;;15.57;64.97;94532.13;5045326;28;2593;-58
2022/09/18 04:16:00;;;;;;;;;;;;;;;15.60;66.00;94540.63;5034471;28;1033;-62
2022/09/18 04:18:27;;;;;;;;;;;;;;;15.60;65.14;94547.88;5050940;28;2664;-64
2022/09/18 04:20:53;;;;;;;;;;;;;;;15.60;65.39;94553.28;5053642;28;1055;-59
2022/09/18 04:23:20;;;;;;;;;;;;;;;15.51;66.15;94562.59;5054986;28;1053;-59
2022/09/18 04:25:47;;;;;;;;;;;;;;;15.47;65.08;94564.03;5053343;28;1904;-59
2022/09/18 04:28:14;;;;;;;;;;;;;;;15.29;67.00;94562.78;5054726;28;1068;-59
2022/09/18 04:30:45;;;;;;;;;;;;;;;15.31;66.50;94571.47;5035537;28;2665;-59
2022/09/18 04:33:12;;;;;;;;;;;;;;;15.33;65.37;94588.25;5034854;28;1020;-60
2022/09/18 04:35:40;;;;;;;;;;;;;;;15.38;65.50;94595.72;5034567;28;1056;-59
2022/09/18 04:38:08;;;;;;;;;;;;;;;15.46;64.96;94600.06;5033479;28;1705;-59
2022/09/18 04:40:35;;;;;;;;;;;;;;;15.38;64.37;94607.31;5034487;28;1060;-59
2022/09/18 04:43:02;;;;;;;;;;;;;;;15.36;64.35;94617.47;5033143;28;1049;-59
2022/09/18 04:45:29;;;;;;;;;;;;;;;15.34;64.23;94633.00;5034116;28;1991;-59
2022/09/18 04:47:56;;;;;;;;;;;;;;;15.45;64.18;94636.16;5032928;28;1614;-59
2022/09/18 04:50:23;;;;;;;;;;;;;;;15.43;63.00;94642.56;5034224;28;1221;-59
2022/09/18 04:52:49;;;;;;;;;;;;;;;15.36;63.27;94639.00;5034569;28;1062;-59
2022/09/18 04:55:15;;;;;;;;;;;;;;;15.35;62.84;94660.78;5034271;28;962;-59
2022/09/18 04:57:42;;;;;;;;;;;;;;;15.29;63.63;94657.03;5035172;28;1343;-59
2022/09/18 05:00:08;;;;;;;;;;;;;;;15.38;63.65;94660.34;5053815;28;1021;-59
2022/09/18 05:02:34;;;;;;;;;;;;;;;15.34;63.37;94668.00;5054347;28;964;-58
2022/09/18 05:05:00;;;;;;;;;;;;;;;15.38;63.87;94673.81;5054114;28;977;-58
2022/09/18 05:07:26;;;;;;;;;;;;;;;15.40;62.75;94679.84;5047535;28;1918;-59
2022/09/18 05:09:52;;;;;;;;;;;;;;;15.46;63.00;94691.66;5033849;28;1021;-58
2022/09/18 05:12:18;;;;;;;;;;;;;;;15.43;61.26;94690.22;5034010;28;965;-59
2022/09/18 05:14:44;;;;;;;;;;;;;;;15.46;61.85;94706.00;5033986;28;1221;-59
2022/09/18 05:17:10;;;;;;;;;;;;;;;15.45;61.77;94715.09;5034167;28;1004;-58
2022/09/18 05:19:36;;;;;;;;;;;;;;;15.36;61.61;94717.13;5034310;28;1056;-59
2022/09/18 05:22:02;;;;;;;;;;;;;;;15.33;62.02;94720.22;5033963;28;1044;-59
2022/09/18 05:24:28;;;;;;;;;;;;;;;15.26;61.91;94724.75;5034152;28;994;-58
2022/09/18 05:26:54;;;;;;;;;;;;;;;15.32;60.84;94731.19;5033674;28;1913;-59
2022/09/18 05:29:20;;;;;;;;;;;;;;;15.37;59.50;94734.97;5033745;28;1036;-59
2022/09/18 05:31:48;;;;;;;;;;;;;;;15.33;62.20;94744.47;5032472;28;1051;-59
2022/09/18 05:34:14;;;;;;;;;;;;;;;15.33;61.20;94752.56;5033908;28;1016;-59
2022/09/18 05:36:40;;;;;;;;;;;;;;;15.34;59.69;94751.50;5033703;28;1008;-58
2022/09/18 05:39:06;;;;;;;;;;;;;;;15.41;59.89;94754.25;5033255;28;1044;-59
2022/09/18 05:41:32;;;;;;;;;;;;;;;15.49;60.95;94767.53;5033663;28;1039;-59
2022/09/18 05:43:58;;;;;;;;;;;;;;;15.50;58.92;94760.28;5033629;28;1024;-59
2022/09/18 05:46:24;;;;;;;;;;;;;;;15.55;58.64;94773.97;5033277;28;2021;-59
2022/09/18 05:48:50;;;;;;;;;;;;;;;15.67;60.02;94782.31;5033506;28;1064;-58
2022/09/18 05:51:16;;;;;;;;;;;;;;;15.75;58.55;94780.31;5032911;28;1235;-59
2022/09/18 05:53:47;;;;;;;;;;;;;;;15.77;58.04;94783.63;5033633;28;1006;-58
2022/09/18 05:56:14;;;;;;;;;;;;;;;15.75;58.42;94784.88;5032601;28;1127;-59
2022/09/18 05:58:40;;;;;;;;;;;;;;;15.71;60.43;94797.91;5043234;28;1280;-59
2022/09/18 06:01:06;;;;;;;;;;;;;;;15.84;58.44;94797.16;5053128;28;1198;-59
2022/09/18 06:03:32;;;;;;;;;;;;;;;15.76;59.23;94797.31;5053311;28;1096;-59
2022/09/18 06:05:58;;;;;;;;;;;;;;;15.62;58.70;94801.78;5053083;28;1992;-59
2022/09/18 06:08:24;;;;;;;;;;;;;;;15.63;59.44;94808.81;5053310;28;1095;-58
2022/09/18 06:10:52;;;;;;;;;;;;;;;15.68;57.25;94798.28;5053019;28;1083;-59
2022/09/18 06:13:18;;;;;;;;;;;;;;;15.74;57.33;94789.41;5053177;28;980;-59
2022/09/18 06:15:45;;;;;;;;;;;;;;;15.74;60.13;94800.19;5053298;28;1040;-59
2022/09/18 06:18:13;;;;;;;;;;;;;;;15.66;58.98;94792.28;5053268;28;1009;-58
2022/09/18 06:20:40;;;;;;;;;;;;;;;15.85;57.30;94806.88;5053353;28;974;-59
2022/09/18 06:23:06;;;;;;;;;;;;;;;16.28;57.61;94803.06;5053051;28;1019;-59
2022/09/18 06:25:32;;;;;;;;;;;;;;;16.53;56.42;94801.44;5053041;28;1914;-59
2022/09/18 06:27:59;;;;;;;;;;;;;;;16.55;58.07;94810.16;5052810;28;976;-59
2022/09/18 06:30:26;;;;;;;;;;;;;;;16.60;56.25;94812.25;5053077;28;1028;-59
2022/09/18 06:32:52;;;;;;;;;;;;;;;16.61;56.47;94826.56;5052966;28;976;-60
2022/09/18 06:35:19;;;;;;;;;;;;;;;16.50;59.25;94836.91;5053122;28;992;-60
2022/09/18 06:37:45;;;;;;;;;;;;;;;16.39;57.88;94845.63;5052867;28;1035;-59
2022/09/18 06:40:11;;;;;;;;;;;;;;;16.42;58.50;94853.31;5052902;28;1021;-59
2022/09/18 06:42:37;;;;;;;;;;;;;;;16.44;59.67;94855.81;5052786;28;1119;-59
2022/09/18 06:45:03;;;;;;;;;;;;;;;16.45;58.45;94849.34;5052872;28;1119;-59
2022/09/18 06:47:29;;;;;;;;;;;;;;;16.45;58.01;94850.19;5052922;28;1957;-59
2022/09/18 06:49:55;;;;;;;;;;;;;;;16.48;58.25;94859.75;5052852;28;1114;-59
2022/09/18 06:52:23;;;;;;;;;;;;;;;16.49;56.64;94856.03;5056616;28;1103;-58
2022/09/18 06:54:49;;;;;;;;;;;;;;;16.49;57.63;94856.84;5056463;28;1476;-59
2022/09/18 06:57:15;;;;;;;;;;;;;;;16.57;56.48;94851.25;5056470;28;966;-59
2022/09/18 06:59:41;;;;;;;;;;;;;;;16.61;57.14;94864.34;5038393;28;1252;-59
2022/09/18 07:02:12;;;;;;;;;;;;;;;16.65;54.97;94862.88;5036707;28;1043;-59
2022/09/18 07:04:38;;;;;;;;;;;;;;;16.84;56.28;94864.78;5036812;28;972;-58
2022/09/18 07:07:05;;;;;;;;;;;;;;;17.27;53.39;94861.69;5036370;28;1906;-59
2022/09/18 07:09:31;;;;;;;;;;;;;;;17.74;52.31;94859.72;5036455;28;1286;-59
2022/09/18 07:11:58;;;;;;;;;;;;;;;17.76;52.89;94865.72;5036619;28;1000;-59
2022/09/18 07:14:24;;;;;;;;;;;;;;;17.93;51.12;94873.41;5036725;28;1000;-59
2022/09/18 07:16:50;;;;;;;;;;;;;;;17.80;50.86;94879.66;5036379;28;1030;-59
2022/09/18 07:19:16;;;;;;;;;;;;;;;17.79;51.51;94879.88;5036376;28;1083;-59
2022/09/18 07:21:42;;;;;;;;;;;;;;;17.82;52.49;94887.56;5036324;28;1015;-59
2022/09/18 07:24:08;;;;;;;;;;;;;;;17.80;51.81;94893.19;5036096;28;1275;-58
2022/09/18 07:26:34;;;;;;;;;;;;;;;18.22;52.26;94903.69;5036164;28;1902;-59
2022/09/18 07:29:00;;;;;;;;;;;;;;;18.76;49.82;94910.47;5036154;28;1007;-59
2022/09/18 07:31:27;;;;;;;;;;;;;;;19.06;49.39;94907.19;5036359;28;949;-59
2022/09/18 07:33:53;;;;;;;;;;;;;;;19.25;48.53;94908.91;5036021;28;1019;-59
2022/09/18 07:36:21;;;;;;;;;;;;;;;19.97;47.91;94913.88;5036165;28;991;-59
2022/09/18 07:38:51;;;;;;;;;;;;;;;20.52;46.19;94914.91;5035723;28;1032;-59
2022/09/18 07:41:17;;;;;;;;;;;;;;;21.36;43.48;94925.84;5035050;28;2009;-59
2022/09/18 07:43:44;;;;;;;;;;;;;;;21.59;42.22;94925.09;5035890;28;1029;-59
2022/09/18 07:46:10;;;;;;;;;;;;;;;21.96;42.54;94928.41;5035833;28;1991;-59
2022/09/18 07:48:36;;;;;;;;;;;;;;;21.07;44.21;94922.94;5035852;28;999;-59
2022/09/18 07:51:02;;;;;;;;;;;;;;;21.69;43.74;94933.50;5035508;28;1086;-59
2022/09/18 07:53:28;;;;;;;;;;;;;;;22.76;41.70;94936.91;5035549;28;1040;-58
2022/09/18 07:55:56;;;;;;;;;;;;;;;23.86;39.73;94931.25;5035870;28;977;-59
2022/09/18 07:58:22;;;;;;;;;;;;;;;29.98;31.23;94969.06;5043054;28;1264;-59
2022/09/18 08:00:49;;;;;;;;;;;;;;;32.36;26.94;95002.59;5055165;28;1021;-59
2022/09/18 08:03:17;;;;;;;;;;;;;;;31.76;27.28;94992.22;5055351;28;1011;-59
2022/09/18 08:05:43;;;;;;;;;;;;;;;29.75;28.90;94981.66;5055360;28;1992;-58
2022/09/18 08:08:13;;;;;;;;;;;;;;;29.41;30.16;94981.56;5055117;28;1029;-58
2022/09/18 08:10:40;;;;;;;;;;;;;;;36.79;22.38;95023.69;5055275;28;1104;-58
2022/09/18 08:13:06;;;;;;;;;;;;;;;40.97;18.23;95044.53;5055320;28;1020;-59
2022/09/18 08:15:33;;;;;;;;;;;;;;;42.86;16.36;95052.25;5055228;28;1088;-59
2022/09/18 08:17:59;;;;;;;;;;;;;;;37.22;20.22;95034.69;5055443;28;962;-59
2022/09/18 08:20:25;;;;;;;;;;;;;;;31.18;26.67;95007.06;5055287;28;1049;-59
2022/09/18 08:22:51;;;;;;;;;;;;;;;37.69;20.52;95034.63;5054803;28;958;-59
2022/09/18 08:25:19;;;;;;;;;;;;;;;40.90;17.79;95049.13;5055326;28;1026;-59
2022/09/18 08:27:45;;;;;;;;;;;;;;;41.96;16.91;95062.69;5054996;28;1909;-59
2022/09/18 08:30:13;;;;;;;;;;;;;;;42.77;16.27;95062.09;5055033;28;1036;-59
2022/09/18 08:32:39;;;;;;;;;;;;;;;42.03;16.31;95060.84;5055003;28;1056;-60
2022/09/18 08:35:05;;;;;;;;;;;;;;;41.45;17.02;95040.97;5054767;28;972;-59
2022/09/18 08:37:32;;;;;;;;;;;;;;;40.65;17.24;95034.41;5054780;28;1004;-59
2022/09/18 08:39:58;;;;;;;;;;;;;;;37.50;20.03;95023.06;5054500;28;1041;-59
2022/09/18 08:42:24;;;;;;;;;;;;;;;36.30;21.06;95019.13;5054774;28;1111;-59
2022/09/18 08:44:58;;;;;;;;;;;;;;;36.57;21.18;95024.66;5054579;28;1004;-58
2022/09/18 08:47:29;;;;;;;;;;;;;;;36.26;20.97;95015.38;5054616;28;1914;-59
2022/09/18 08:53:24;;;;;;;;;;;;;;;33.74;23.45;94995.53;3851795;28;1980;-59
2022/09/18 08:55:51;;;;;;;;;;;;;;;31.63;25.42;94996.56;5054515;28;1015;-58
2022/09/18 08:58:35;;;;;;;;;;;;;;;28.80;27.97;94973.28;5046252;28;1260;-58
2022/09/18 09:01:14;;;;;;;;;;;;;;;25.89;31.82;94969.44;5034411;28;1103;-58
2022/09/18 09:03:43;;;;;;;;;;;;;;;24.08;34.18;94961.34;5034424;28;1029;-58
2022/09/18 09:06:30;;;;;;;;;;;;;;;23.18;35.42;94948.38;5034300;28;1914;-58
2022/09/18 09:09:05;;;;;;;;;;;;;;;22.70;37.07;94935.16;5034051;28;1016;-58
2022/09/18 09:11:44;;;;;;;;;;;;;;;22.57;36.90;94939.81;5034537;28;1028;-58
2022/09/18 09:14:14;;;;;;;;;;;;;;;22.27;37.64;94936.44;5033335;28;1077;-57
2022/09/18 09:16:42;;;;;;;;;;;;;;;21.99;38.23;94933.38;5034192;28;1026;-57
2022/09/18 09:19:30;;;;;;;;;;;;;;;21.80;39.87;94943.56;5033940;28;956;-57
2022/09/18 09:22:04;;;;;;;;;;;;;;;21.70;39.03;94939.75;5033420;28;1216;-57
2022/09/18 09:24:39;;;;;;;;;;;;;;;21.56;38.36;94947.31;5034069;28;1034;-57
2022/09/18 09:27:14;;;;;;;;;;;;;;;21.37;39.01;94944.66;5033905;28;1902;-58
2022/09/18 09:29:42;;;;;;;;;;;;;;;21.38;39.99;94943.59;5033681;28;1024;-58
2022/09/18 09:32:28;;;;;;;;;;;;;;;21.42;41.94;94944.78;5034203;28;999;-58
2022/09/18 09:34:59;;;;;;;;;;;;;;;21.44;39.55;94931.00;5033861;28;995;-58
2022/09/18 09:37:33;;;;;;;;;;;;;;;21.34;39.79;94942.41;5033993;28;1129;-57
2022/09/18 09:40:06;;;;;;;;;;;;;;;21.25;40.19;94952.78;5033631;28;968;-56
2022/09/18 09:42:38;;;;;;;;;;;;;;;21.12;40.95;94958.44;5033815;28;1108;-58
2022/09/18 09:45:16;;;;;;;;;;;;;;;21.08;39.68;94959.09;5033757;28;1019;-57
2022/09/18 09:47:46;;;;;;;;;;;;;;;21.06;40.24;94970.22;5033609;28;1910;-58
2022/09/18 09:50:16;;;;;;;;;;;;;;;21.12;39.46;94960.31;5033482;28;1091;-58
2022/09/18 09:52:45;;;;;;;;;;;;;;;21.01;42.29;94962.75;5033283;28;1209;-58
2022/09/18 09:55:18;;;;;;;;;;;;;;;20.89;40.04;94963.75;5033408;28;1027;-58
2022/09/18 09:57:50;;;;;;;;;;;;;;;20.46;41.88;94960.09;5035761;28;1260;-58
2022/09/18 10:00:18;;;;;;;;;;;;;;;20.18;41.03;94966.88;5053623;28;1032;-58
2022/09/18 10:03:03;;;;;;;;;;;;;;;20.15;40.99;94971.97;5053375;28;1026;-58
2022/09/18 10:05:41;;;;;;;;;;;;;;;20.27;41.71;94973.69;5053168;28;1041;-58
2022/09/18 10:08:11;;;;;;;;;;;;;;;20.48;41.27;94977.81;5053499;28;1053;-58
2022/09/18 10:10:44;;;;;;;;;;;;;;;20.71;41.84;94970.06;5053257;28;1004;-58
2022/09/18 10:13:10;;;;;;;;;;;;;;;20.63;42.04;94982.09;5053409;28;1040;-59
2022/09/18 10:15:50;;;;;;;;;;;;;;;20.64;41.73;94981.84;5053081;28;1002;-60
2022/09/18 10:18:24;;;;;;;;;;;;;;;20.37;43.15;94980.47;5053479;28;993;-60
2022/09/18 10:20:54;;;;;;;;;;;;;;;20.53;41.03;94996.16;5053085;28;1042;-60
2022/09/18 10:23:29;;;;;;;;;;;;;;;20.19;40.41;94997.59;5053259;28;970;-60
2022/09/18 10:25:58;;;;;;;;;;;;;;;19.75;41.47;94991.31;5056391;28;1910;-59
2022/09/18 10:28:25;;;;;;;;;;;;;;;20.04;43.04;94992.53;5057215;28;970;-59
2022/09/18 10:30:52;;;;;;;;;;;;;;;20.08;42.24;94983.69;5057222;28;1021;-59
2022/09/18 10:33:38;;;;;;;;;;;;;;;20.31;43.80;94993.06;5057174;28;1029;-60
2022/09/18 10:36:10;;;;;;;;;;;;;;;20.19;42.87;94994.88;5056853;28;1109;-59
2022/09/18 10:38:38;;;;;;;;;;;;;;;20.09;43.01;95003.53;5057024;28;1025;-60
2022/09/18 10:41:10;;;;;;;;;;;;;;;19.98;41.78;95018.66;5056993;28;1011;-60
2022/09/18 10:43:48;;;;;;;;;;;;;;;19.79;42.72;95011.53;5057181;28;1295;-59
2022/09/18 10:46:21;;;;;;;;;;;;;;;19.65;43.47;95010.78;5056864;28;1910;-59
2022/09/18 10:48:47;;;;;;;;;;;;;;;19.73;44.27;95013.25;5056911;28;977;-58
2022/09/18 10:51:16;;;;;;;;;;;;;;;19.88;42.35;95023.75;5056634;28;962;-58
2022/09/18 10:53:42;;;;;;;;;;;;;;;20.17;43.33;95013.28;5056598;28;1309;-64
2022/09/18 10:56:19;;;;;;;;;;;;;;;20.27;43.13;95016.28;5056582;28;1021;-58
2022/09/18 10:58:45;;;;;;;;;;;;;;;20.16;42.35;95015.13;5046134;28;1236;-62
2022/09/18 11:01:11;;;;;;;;;;;;;;;20.13;42.24;95017.47;5037116;28;1016;-58
2022/09/18 11:03:45;;;;;;;;;;;;;;;20.19;43.01;95019.31;5036798;28;1036;-58
2022/09/18 11:06:15;;;;;;;;;;;;;;;20.48;41.83;95013.13;5036684;28;1910;-59
2022/09/18 11:08:44;;;;;;;;;;;;;;;20.38;41.67;95020.16;5036540;28;932;-58
2022/09/18 11:11:12;;;;;;;;;;;;;;;20.13;43.02;95020.19;5036540;28;956;-58
2022/09/18 11:13:47;;;;;;;;;;;;;;;20.02;42.46;95016.34;5035462;28;1131;-58
2022/09/18 11:16:20;;;;;;;;;;;;;;;19.93;42.36;95026.63;5036330;28;1031;-58
2022/09/18 11:18:46;;;;;;;;;;;;;;;19.95;42.70;95027.25;5036642;28;961;-58
2022/09/18 11:21:12;;;;;;;;;;;;;;;19.79;43.21;95023.22;5036226;28;1032;-59
2022/09/18 11:23:40;;;;;;;;;;;;;;;19.67;43.14;95014.94;5036505;28;992;-58
2022/09/18 11:26:09;;;;;;;;;;;;;;;19.64;44.12;95017.25;5036161;28;1997;-59
2022/09/18 11:28:35;;;;;;;;;;;;;;;19.53;43.33;95023.41;5036224;28;1199;-58
2022/09/18 11:31:04;;;;;;;;;;;;;;;19.37;43.56;95019.31;5035877;28;984;-59
2022/09/18 11:33:57;;;;;;;;;;;;;;;19.36;44.37;95026.63;5036454;28;1039;-58
2022/09/18 11:36:25;;;;;;;;;;;;;;;19.61;44.09;95025.81;5034660;28;1438;-58
2022/09/18 11:38:51;;;;;;;;;;;;;;;19.50;42.42;95030.06;5035968;28;1107;-59
2022/09/18 11:41:24;;;;;;;;;;;;;;;19.37;43.56;95024.75;5035736;28;1040;-59
2022/09/18 11:44:00;;;;;;;;;;;;;;;19.54;42.77;95025.91;5036138;28;1035;-58
2022/09/18 11:46:26;;;;;;;;;;;;;;;19.79;43.70;95027.81;5035862;28;1918;-59
2022/09/18 11:49:01;;;;;;;;;;;;;;;19.89;42.28;95020.00;5035809;28;1075;-58
2022/09/18 11:51:31;;;;;;;;;;;;;;;19.95;42.86;95027.25;5035650;28;1423;-58
2022/09/18 11:54:13;;;;;;;;;;;;;;;19.97;43.50;95027.84;5035542;28;1098;-59
2022/09/18 11:56:43;;;;;;;;;;;;;;;20.02;41.53;95032.63;5034489;28;971;-59
2022/09/18 11:59:27;;;;;;;;;;;;;;;20.07;42.93;95025.47;5049653;28;1299;-59
2022/09/18 12:01:59;;;;;;;;;;;;;;;20.01;41.45;95020.91;5055354;28;1029;-59
2022/09/18 12:04:43;;;;;;;;;;;;;;;19.97;42.10;95022.41;5055464;28;1069;-59
2022/09/18 12:07:15;;;;;;;;;;;;;;;20.01;41.33;95020.09;5055189;28;1902;-59
2022/09/18 12:09:47;;;;;;;;;;;;;;;20.03;41.21;95031.56;5055303;28;1017;-59
2022/09/18 12:12:19;;;;;;;;;;;;;;;19.95;41.65;95021.81;5054082;28;1042;-59
2022/09/18 12:14:54;;;;;;;;;;;;;;;19.92;41.79;95032.28;5055216;28;1040;-59
2022/09/18 12:17:24;;;;;;;;;;;;;;;19.93;43.15;95033.94;5055363;28;1017;-59
2022/09/18 12:20:02;;;;;;;;;;;;;;;19.88;42.09;95034.59;5055268;28;1041;-59
2022/09/18 12:22:32;;;;;;;;;;;;;;;19.87;40.98;95031.06;5054987;28;1036;-59
2022/09/18 12:24:58;;;;;;;;;;;;;;;19.80;42.92;95034.88;5054994;28;1021;-59
2022/09/18 12:27:24;;;;;;;;;;;;;;;19.87;43.95;95024.81;5054764;28;2028;-59
2022/09/18 12:29:50;;;;;;;;;;;;;;;19.89;41.60;95036.28;5054880;28;1020;-59
2022/09/18 12:32:25;;;;;;;;;;;;;;;19.84;42.24;95034.25;5054762;28;941;-59
2022/09/18 12:34:59;;;;;;;;;;;;;;;19.78;42.62;95037.81;5054966;28;1054;-59
2022/09/18 12:38:00;;;;;;;;;;;;;;;19.79;42.89;95038.66;5054740;28;1012;-59
2022/09/18 12:40:48;;;;;;;;;;;;;;;19.76;42.44;95044.53;5032620;28;1320;-58
2022/09/18 12:43:23;;;;;;;;;;;;;;;19.88;42.99;95037.31;5053288;28;1120;-59
2022/09/18 12:45:49;;;;;;;;;;;;;;;20.04;43.44;95036.75;5054591;28;1989;-58
2022/09/18 12:48:15;;;;;;;;;;;;;;;20.17;41.52;95041.25;5054302;28;1087;-58
2022/09/18 12:51:13;;;;;;;;;;;;;;;20.06;40.38;95042.78;5054782;28;991;-59
2022/09/18 12:53:56;;;;;;;;;;;;;;;20.17;41.13;95043.97;5042037;28;1540;-59
2022/09/18 12:56:37;;;;;;;;;;;;;;;20.14;40.12;95049.81;5054514;28;1021;-59
2022/09/18 12:59:11;;;;;;;;;;;;;;;20.02;40.33;95047.00;5041225;28;1292;-58
2022/09/18 13:01:40;;;;;;;;;;;;;;;19.91;41.11;95047.75;5034749;28;1035;-59
2022/09/18 13:04:19;;;;;;;;;;;;;;;19.64;41.92;95037.06;5034290;28;901;-59
2022/09/18 13:06:49;;;;;;;;;;;;;;;19.59;41.79;95039.59;5034400;28;1910;-59
2022/09/18 13:09:31;;;;;;;;;;;;;;;19.53;40.44;95031.53;5034147;28;1011;-59
2022/09/18 13:12:01;;;;;;;;;;;;;;;19.60;41.11;95035.03;5034234;28;1091;-59
2022/09/18 13:14:39;;;;;;;;;;;;;;;19.67;41.27;95046.63;5034301;28;1020;-59
2022/09/18 13:17:10;;;;;;;;;;;;;;;19.50;42.25;95046.34;5034323;28;936;-59